sensor_id;sensor_type;location;lat;lon;timestamp;P1;durP1;ratioP1;P2;durP2;ratioP2
83688;SDS011;74527;43.224;0.108;2024-03-02T00:02:24;9.55;;;2.33;;
83688;SDS011;74527;43.224;0.108;2024-03-02T00:04:50;9.98;;;3.20;;
83688;SDS011;74527;43.224;0.108;2024-03-02T00:07:16;11.32;;;1.65;;
83688;SDS011;74527;43.224;0.108;2024-03-02T00:09:43;12.80;;;2.28;;
83688;SDS011;74527;43.224;0.108;2024-03-02T00:12:11;10.25;;;1.98;;
83688;SDS011;74527;43.224;0.108;2024-03-02T00:14:37;8.07;;;1.30;;
83688;SDS011;74527;43.224;0.108;2024-03-02T00:17:03;6.20;;;1.35;;
83688;SDS011;74527;43.224;0.108;2024-03-02T00:19:30;7.18;;;1.30;;
83688;SDS011;74527;43.224;0.108;2024-03-02T00:21:56;10.45;;;2.30;;
83688;SDS011;74527;43.224;0.108;2024-03-02T00:24:31;6.40;;;1.48;;
83688;SDS011;74527;43.224;0.108;2024-03-02T00:26:58;6.35;;;1.80;;
83688;SDS011;74527;43.224;0.108;2024-03-02T00:29:24;6.50;;;1.33;;
83688;SDS011;74527;43.224;0.108;2024-03-02T00:31:50;6.43;;;1.60;;
83688;SDS011;74527;43.224;0.108;2024-03-02T00:34:17;7.80;;;1.23;;
83688;SDS011;74527;43.224;0.108;2024-03-02T00:36:43;17.63;;;2.83;;
83688;SDS011;74527;43.224;0.108;2024-03-02T00:39:11;7.38;;;1.88;;
83688;SDS011;74527;43.224;0.108;2024-03-02T00:41:38;6.82;;;1.40;;
83688;SDS011;74527;43.224;0.108;2024-03-02T00:44:07;5.40;;;1.30;;
83688;SDS011;74527;43.224;0.108;2024-03-02T00:46:36;6.32;;;1.58;;
83688;SDS011;74527;43.224;0.108;2024-03-02T00:49:05;7.40;;;1.83;;
83688;SDS011;74527;43.224;0.108;2024-03-02T00:51:37;11.05;;;1.48;;
83688;SDS011;74527;43.224;0.108;2024-03-02T00:54:04;11.05;;;1.60;;
83688;SDS011;74527;43.224;0.108;2024-03-02T00:56:30;5.50;;;1.30;;
83688;SDS011;74527;43.224;0.108;2024-03-02T00:58:56;4.22;;;1.10;;
83688;SDS011;74527;43.224;0.108;2024-03-02T01:01:23;3.40;;;1.30;;
83688;SDS011;74527;43.224;0.108;2024-03-02T01:03:49;6.80;;;1.50;;
83688;SDS011;74527;43.224;0.108;2024-03-02T01:06:15;4.63;;;1.20;;
83688;SDS011;74527;43.224;0.108;2024-03-02T01:08:42;4.47;;;0.98;;
83688;SDS011;74527;43.224;0.108;2024-03-02T01:11:08;5.70;;;1.55;;
83688;SDS011;74527;43.224;0.108;2024-03-02T01:13:34;4.95;;;1.17;;
83688;SDS011;74527;43.224;0.108;2024-03-02T01:16:00;4.38;;;2.05;;
83688;SDS011;74527;43.224;0.108;2024-03-02T01:18:27;2.30;;;0.85;;
83688;SDS011;74527;43.224;0.108;2024-03-02T01:20:53;6.40;;;1.40;;
83688;SDS011;74527;43.224;0.108;2024-03-02T01:23:23;5.13;;;1.30;;
83688;SDS011;74527;43.224;0.108;2024-03-02T01:25:49;3.00;;;0.80;;
83688;SDS011;74527;43.224;0.108;2024-03-02T01:28:15;5.47;;;0.80;;
83688;SDS011;74527;43.224;0.108;2024-03-02T01:30:42;2.72;;;0.80;;
83688;SDS011;74527;43.224;0.108;2024-03-02T01:33:08;2.75;;;1.20;;
83688;SDS011;74527;43.224;0.108;2024-03-02T01:35:34;6.22;;;1.33;;
83688;SDS011;74527;43.224;0.108;2024-03-02T01:38:00;1.80;;;0.75;;
83688;SDS011;74527;43.224;0.108;2024-03-02T01:40:27;4.82;;;0.73;;
83688;SDS011;74527;43.224;0.108;2024-03-02T01:42:53;9.07;;;1.13;;
83688;SDS011;74527;43.224;0.108;2024-03-02T01:45:20;5.25;;;0.80;;
83688;SDS011;74527;43.224;0.108;2024-03-02T01:47:46;4.97;;;0.90;;
83688;SDS011;74527;43.224;0.108;2024-03-02T01:50:12;2.00;;;0.80;;
83688;SDS011;74527;43.224;0.108;2024-03-02T01:52:38;2.25;;;0.90;;
83688;SDS011;74527;43.224;0.108;2024-03-02T01:55:05;3.03;;;0.90;;
83688;SDS011;74527;43.224;0.108;2024-03-02T01:57:32;4.32;;;0.60;;
83688;SDS011;74527;43.224;0.108;2024-03-02T01:59:58;1.88;;;0.90;;
83688;SDS011;74527;43.224;0.108;2024-03-02T02:02:24;5.72;;;0.75;;
83688;SDS011;74527;43.224;0.108;2024-03-02T02:04:50;2.97;;;0.90;;
83688;SDS011;74527;43.224;0.108;2024-03-02T02:07:16;4.00;;;0.75;;
83688;SDS011;74527;43.224;0.108;2024-03-02T02:09:42;1.88;;;0.82;;
83688;SDS011;74527;43.224;0.108;2024-03-02T02:12:12;1.65;;;0.70;;
83688;SDS011;74527;43.224;0.108;2024-03-02T02:14:38;1.73;;;0.75;;
83688;SDS011;74527;43.224;0.108;2024-03-02T02:17:05;2.78;;;0.70;;
83688;SDS011;74527;43.224;0.108;2024-03-02T02:19:31;4.78;;;0.88;;
83688;SDS011;74527;43.224;0.108;2024-03-02T02:21:58;1.23;;;0.50;;
83688;SDS011;74527;43.224;0.108;2024-03-02T02:24:24;1.38;;;0.70;;
83688;SDS011;74527;43.224;0.108;2024-03-02T02:26:50;2.22;;;0.60;;
83688;SDS011;74527;43.224;0.108;2024-03-02T02:29:16;1.02;;;0.60;;
83688;SDS011;74527;43.224;0.108;2024-03-02T02:31:42;3.50;;;0.75;;
83688;SDS011;74527;43.224;0.108;2024-03-02T02:34:08;1.35;;;0.60;;
83688;SDS011;74527;43.224;0.108;2024-03-02T02:36:34;2.58;;;1.02;;
83688;SDS011;74527;43.224;0.108;2024-03-02T02:41:29;2.55;;;0.88;;
83688;SDS011;74527;43.224;0.108;2024-03-02T02:43:55;2.92;;;1.17;;
83688;SDS011;74527;43.224;0.108;2024-03-02T02:46:21;1.00;;;0.52;;
83688;SDS011;74527;43.224;0.108;2024-03-02T02:48:47;2.38;;;0.70;;
83688;SDS011;74527;43.224;0.108;2024-03-02T02:51:13;0.82;;;0.50;;
83688;SDS011;74527;43.224;0.108;2024-03-02T02:53:39;2.40;;;0.57;;
83688;SDS011;74527;43.224;0.108;2024-03-02T02:56:09;4.43;;;0.85;;
83688;SDS011;74527;43.224;0.108;2024-03-02T02:58:35;2.75;;;1.02;;
83688;SDS011;74527;43.224;0.108;2024-03-02T03:01:01;2.40;;;0.60;;
83688;SDS011;74527;43.224;0.108;2024-03-02T03:03:27;3.33;;;0.80;;
83688;SDS011;74527;43.224;0.108;2024-03-02T03:05:53;1.13;;;0.63;;
83688;SDS011;74527;43.224;0.108;2024-03-02T03:08:19;2.30;;;0.40;;
83688;SDS011;74527;43.224;0.108;2024-03-02T03:10:45;2.22;;;0.98;;
83688;SDS011;74527;43.224;0.108;2024-03-02T03:13:11;0.60;;;0.40;;
83688;SDS011;74527;43.224;0.108;2024-03-02T03:15:37;0.47;;;0.47;;
83688;SDS011;74527;43.224;0.108;2024-03-02T03:18:04;2.22;;;0.57;;
83688;SDS011;74527;43.224;0.108;2024-03-02T03:20:30;1.55;;;0.55;;
83688;SDS011;74527;43.224;0.108;2024-03-02T03:22:56;2.17;;;0.30;;
83688;SDS011;74527;43.224;0.108;2024-03-02T03:25:22;1.27;;;0.40;;
83688;SDS011;74527;43.224;0.108;2024-03-02T03:27:48;0.40;;;0.40;;
83688;SDS011;74527;43.224;0.108;2024-03-02T03:30:16;3.30;;;0.70;;
83688;SDS011;74527;43.224;0.108;2024-03-02T03:32:43;2.08;;;0.47;;
83688;SDS011;74527;43.224;0.108;2024-03-02T03:35:09;1.05;;;0.63;;
83688;SDS011;74527;43.224;0.108;2024-03-02T03:37:35;2.33;;;0.60;;
83688;SDS011;74527;43.224;0.108;2024-03-02T03:40:01;3.90;;;0.73;;
83688;SDS011;74527;43.224;0.108;2024-03-02T03:42:28;10.23;;;1.70;;
83688;SDS011;74527;43.224;0.108;2024-03-02T03:44:54;2.63;;;0.80;;
83688;SDS011;74527;43.224;0.108;2024-03-02T03:47:20;2.55;;;0.63;;
83688;SDS011;74527;43.224;0.108;2024-03-02T03:49:46;5.43;;;0.90;;
83688;SDS011;74527;43.224;0.108;2024-03-02T03:52:12;1.77;;;0.65;;
83688;SDS011;74527;43.224;0.108;2024-03-02T03:54:38;2.28;;;0.80;;
83688;SDS011;74527;43.224;0.108;2024-03-02T03:57:04;2.58;;;0.68;;
83688;SDS011;74527;43.224;0.108;2024-03-02T03:59:30;1.15;;;0.57;;
83688;SDS011;74527;43.224;0.108;2024-03-02T04:01:56;1.92;;;0.50;;
83688;SDS011;74527;43.224;0.108;2024-03-02T04:04:22;1.70;;;0.50;;
83688;SDS011;74527;43.224;0.108;2024-03-02T04:06:48;1.35;;;0.50;;
83688;SDS011;74527;43.224;0.108;2024-03-02T04:09:14;2.08;;;0.43;;
83688;SDS011;74527;43.224;0.108;2024-03-02T04:11:40;0.80;;;0.68;;
83688;SDS011;74527;43.224;0.108;2024-03-02T04:14:06;1.63;;;1.02;;
83688;SDS011;74527;43.224;0.108;2024-03-02T04:16:32;2.33;;;1.40;;
83688;SDS011;74527;43.224;0.108;2024-03-02T04:18:58;2.40;;;1.33;;
83688;SDS011;74527;43.224;0.108;2024-03-02T04:21:24;2.47;;;1.17;;
83688;SDS011;74527;43.224;0.108;2024-03-02T04:23:50;1.63;;;0.80;;
83688;SDS011;74527;43.224;0.108;2024-03-02T04:26:16;11.15;;;1.40;;
83688;SDS011;74527;43.224;0.108;2024-03-02T04:28:47;1.92;;;0.77;;
83688;SDS011;74527;43.224;0.108;2024-03-02T04:31:14;3.83;;;1.02;;
83688;SDS011;74527;43.224;0.108;2024-03-02T04:33:40;3.88;;;1.00;;
83688;SDS011;74527;43.224;0.108;2024-03-02T04:36:06;1.15;;;0.82;;
83688;SDS011;74527;43.224;0.108;2024-03-02T04:38:34;1.45;;;0.73;;
83688;SDS011;74527;43.224;0.108;2024-03-02T04:41:00;2.85;;;0.98;;
83688;SDS011;74527;43.224;0.108;2024-03-02T04:43:26;2.30;;;0.80;;
83688;SDS011;74527;43.224;0.108;2024-03-02T04:45:52;4.95;;;1.38;;
83688;SDS011;74527;43.224;0.108;2024-03-02T04:48:18;4.70;;;0.65;;
83688;SDS011;74527;43.224;0.108;2024-03-02T04:50:44;3.30;;;1.30;;
83688;SDS011;74527;43.224;0.108;2024-03-02T04:53:10;5.22;;;1.52;;
83688;SDS011;74527;43.224;0.108;2024-03-02T04:55:36;2.40;;;1.20;;
83688;SDS011;74527;43.224;0.108;2024-03-02T04:58:05;4.25;;;0.77;;
83688;SDS011;74527;43.224;0.108;2024-03-02T05:00:32;2.47;;;1.00;;
83688;SDS011;74527;43.224;0.108;2024-03-02T05:02:58;3.20;;;0.98;;
83688;SDS011;74527;43.224;0.108;2024-03-02T05:05:24;2.50;;;1.48;;
83688;SDS011;74527;43.224;0.108;2024-03-02T05:07:50;3.88;;;0.75;;
83688;SDS011;74527;43.224;0.108;2024-03-02T05:10:16;3.22;;;1.02;;
83688;SDS011;74527;43.224;0.108;2024-03-02T05:12:42;1.42;;;0.60;;
83688;SDS011;74527;43.224;0.108;2024-03-02T05:15:14;4.45;;;0.90;;
83688;SDS011;74527;43.224;0.108;2024-03-02T05:17:41;2.28;;;1.00;;
83688;SDS011;74527;43.224;0.108;2024-03-02T05:20:10;1.73;;;0.68;;
83688;SDS011;74527;43.224;0.108;2024-03-02T05:22:37;3.75;;;0.80;;
83688;SDS011;74527;43.224;0.108;2024-03-02T05:25:03;6.43;;;1.48;;
83688;SDS011;74527;43.224;0.108;2024-03-02T05:27:30;0.60;;;0.60;;
83688;SDS011;74527;43.224;0.108;2024-03-02T05:29:57;5.45;;;1.27;;
83688;SDS011;74527;43.224;0.108;2024-03-02T05:32:24;1.38;;;0.95;;
83688;SDS011;74527;43.224;0.108;2024-03-02T05:34:50;3.92;;;0.70;;
83688;SDS011;74527;43.224;0.108;2024-03-02T05:37:16;3.70;;;2.58;;
83688;SDS011;74527;43.224;0.108;2024-03-02T05:39:42;6.45;;;2.10;;
83688;SDS011;74527;43.224;0.108;2024-03-02T05:42:08;14.35;;;6.00;;
83688;SDS011;74527;43.224;0.108;2024-03-02T05:44:35;3.00;;;1.05;;
83688;SDS011;74527;43.224;0.108;2024-03-02T05:47:01;3.08;;;0.85;;
83688;SDS011;74527;43.224;0.108;2024-03-02T05:49:28;5.38;;;1.40;;
83688;SDS011;74527;43.224;0.108;2024-03-02T05:51:54;8.75;;;3.17;;
83688;SDS011;74527;43.224;0.108;2024-03-02T05:54:20;6.97;;;1.92;;
83688;SDS011;74527;43.224;0.108;2024-03-02T05:56:46;24.77;;;9.88;;
83688;SDS011;74527;43.224;0.108;2024-03-02T05:59:12;11.32;;;4.72;;
83688;SDS011;74527;43.224;0.108;2024-03-02T06:04:05;3.75;;;1.77;;
83688;SDS011;74527;43.224;0.108;2024-03-02T06:06:31;3.97;;;2.20;;
83688;SDS011;74527;43.224;0.108;2024-03-02T06:08:59;6.82;;;2.08;;
83688;SDS011;74527;43.224;0.108;2024-03-02T06:11:25;5.50;;;1.92;;
83688;SDS011;74527;43.224;0.108;2024-03-02T06:13:51;2.95;;;2.03;;
83688;SDS011;74527;43.224;0.108;2024-03-02T06:16:17;7.60;;;2.83;;
83688;SDS011;74527;43.224;0.108;2024-03-02T06:18:43;4.97;;;2.03;;
83688;SDS011;74527;43.224;0.108;2024-03-02T06:21:09;5.35;;;1.90;;
83688;SDS011;74527;43.224;0.108;2024-03-02T06:23:35;6.20;;;2.00;;
83688;SDS011;74527;43.224;0.108;2024-03-02T06:26:01;5.72;;;1.90;;
83688;SDS011;74527;43.224;0.108;2024-03-02T06:28:27;14.45;;;2.45;;
83688;SDS011;74527;43.224;0.108;2024-03-02T06:30:54;10.45;;;3.03;;
83688;SDS011;74527;43.224;0.108;2024-03-02T06:33:20;7.18;;;2.38;;
83688;SDS011;74527;43.224;0.108;2024-03-02T06:35:46;6.43;;;2.78;;
83688;SDS011;74527;43.224;0.108;2024-03-02T06:38:14;5.63;;;2.87;;
83688;SDS011;74527;43.224;0.108;2024-03-02T06:40:40;3.38;;;2.33;;
83688;SDS011;74527;43.224;0.108;2024-03-02T06:43:06;6.82;;;2.63;;
83688;SDS011;74527;43.224;0.108;2024-03-02T06:45:32;6.05;;;2.45;;
83688;SDS011;74527;43.224;0.108;2024-03-02T06:47:59;8.35;;;4.63;;
83688;SDS011;74527;43.224;0.108;2024-03-02T06:50:25;11.18;;;3.35;;
83688;SDS011;74527;43.224;0.108;2024-03-02T06:52:51;6.80;;;2.20;;
83688;SDS011;74527;43.224;0.108;2024-03-02T06:55:18;5.07;;;2.55;;
83688;SDS011;74527;43.224;0.108;2024-03-02T06:57:44;6.25;;;2.92;;
83688;SDS011;74527;43.224;0.108;2024-03-02T07:00:10;4.47;;;2.70;;
83688;SDS011;74527;43.224;0.108;2024-03-02T07:02:36;3.80;;;2.45;;
83688;SDS011;74527;43.224;0.108;2024-03-02T07:05:03;5.18;;;2.20;;
83688;SDS011;74527;43.224;0.108;2024-03-02T07:07:29;8.57;;;2.38;;
83688;SDS011;74527;43.224;0.108;2024-03-02T07:09:55;8.25;;;2.53;;
83688;SDS011;74527;43.224;0.108;2024-03-02T07:12:24;7.82;;;2.53;;
83688;SDS011;74527;43.224;0.108;2024-03-02T07:14:50;10.82;;;3.22;;
83688;SDS011;74527;43.224;0.108;2024-03-02T07:17:33;5.07;;;2.55;;
83688;SDS011;74527;43.224;0.108;2024-03-02T07:19:59;6.32;;;2.60;;
83688;SDS011;74527;43.224;0.108;2024-03-02T07:22:25;11.60;;;2.15;;
83688;SDS011;74527;43.224;0.108;2024-03-02T07:24:51;8.85;;;2.50;;
83688;SDS011;74527;43.224;0.108;2024-03-02T07:27:17;5.80;;;1.88;;
83688;SDS011;74527;43.224;0.108;2024-03-02T07:29:43;3.80;;;2.38;;
83688;SDS011;74527;43.224;0.108;2024-03-02T07:32:09;3.40;;;2.15;;
83688;SDS011;74527;43.224;0.108;2024-03-02T07:34:36;5.70;;;2.08;;
83688;SDS011;74527;43.224;0.108;2024-03-02T07:37:04;4.22;;;1.65;;
83688;SDS011;74527;43.224;0.108;2024-03-02T07:39:31;5.78;;;1.90;;
83688;SDS011;74527;43.224;0.108;2024-03-02T07:41:57;5.50;;;1.77;;
83688;SDS011;74527;43.224;0.108;2024-03-02T07:44:23;5.68;;;2.40;;
83688;SDS011;74527;43.224;0.108;2024-03-02T07:46:49;3.97;;;1.65;;
83688;SDS011;74527;43.224;0.108;2024-03-02T07:49:15;4.90;;;1.88;;
83688;SDS011;74527;43.224;0.108;2024-03-02T07:51:42;4.35;;;1.40;;
83688;SDS011;74527;43.224;0.108;2024-03-02T07:54:08;5.10;;;2.28;;
83688;SDS011;74527;43.224;0.108;2024-03-02T07:56:34;2.80;;;1.30;;
83688;SDS011;74527;43.224;0.108;2024-03-02T07:59:01;2.97;;;1.42;;
83688;SDS011;74527;43.224;0.108;2024-03-02T08:01:28;3.20;;;1.35;;
83688;SDS011;74527;43.224;0.108;2024-03-02T08:03:57;3.83;;;1.40;;
83688;SDS011;74527;43.224;0.108;2024-03-02T08:06:24;4.05;;;1.67;;
83688;SDS011;74527;43.224;0.108;2024-03-02T08:08:52;3.25;;;1.60;;
83688;SDS011;74527;43.224;0.108;2024-03-02T08:11:19;2.03;;;1.38;;
83688;SDS011;74527;43.224;0.108;2024-03-02T08:13:45;1.45;;;1.13;;
83688;SDS011;74527;43.224;0.108;2024-03-02T08:16:11;3.78;;;1.67;;
83688;SDS011;74527;43.224;0.108;2024-03-02T08:18:37;3.72;;;1.95;;
83688;SDS011;74527;43.224;0.108;2024-03-02T08:21:03;1.52;;;1.10;;
83688;SDS011;74527;43.224;0.108;2024-03-02T08:23:29;1.63;;;1.17;;
83688;SDS011;74527;43.224;0.108;2024-03-02T08:25:57;1.13;;;1.00;;
83688;SDS011;74527;43.224;0.108;2024-03-02T08:28:23;2.65;;;1.55;;
83688;SDS011;74527;43.224;0.108;2024-03-02T08:30:49;2.42;;;1.45;;
83688;SDS011;74527;43.224;0.108;2024-03-02T08:33:15;2.97;;;1.40;;
83688;SDS011;74527;43.224;0.108;2024-03-02T08:35:41;4.68;;;1.45;;
83688;SDS011;74527;43.224;0.108;2024-03-02T08:38:08;3.10;;;1.30;;
83688;SDS011;74527;43.224;0.108;2024-03-02T08:40:34;2.42;;;1.52;;
83688;SDS011;74527;43.224;0.108;2024-03-02T08:43:00;5.28;;;1.70;;
83688;SDS011;74527;43.224;0.108;2024-03-02T08:45:26;4.72;;;1.30;;
83688;SDS011;74527;43.224;0.108;2024-03-02T08:47:52;2.88;;;1.42;;
83688;SDS011;74527;43.224;0.108;2024-03-02T08:50:18;4.28;;;1.92;;
83688;SDS011;74527;43.224;0.108;2024-03-02T08:52:44;10.43;;;2.55;;
83688;SDS011;74527;43.224;0.108;2024-03-02T08:55:12;6.75;;;1.80;;
83688;SDS011;74527;43.224;0.108;2024-03-02T08:57:38;4.93;;;1.63;;
83688;SDS011;74527;43.224;0.108;2024-03-02T09:00:04;6.35;;;1.45;;
83688;SDS011;74527;43.224;0.108;2024-03-02T09:02:30;5.95;;;1.95;;
83688;SDS011;74527;43.224;0.108;2024-03-02T09:04:57;4.45;;;2.13;;
83688;SDS011;74527;43.224;0.108;2024-03-02T09:07:23;3.80;;;2.25;;
83688;SDS011;74527;43.224;0.108;2024-03-02T09:09:49;3.38;;;2.17;;
83688;SDS011;74527;43.224;0.108;2024-03-02T09:12:15;4.13;;;1.67;;
83688;SDS011;74527;43.224;0.108;2024-03-02T09:14:41;7.72;;;2.45;;
83688;SDS011;74527;43.224;0.108;2024-03-02T09:17:07;4.70;;;2.38;;
83688;SDS011;74527;43.224;0.108;2024-03-02T09:19:35;9.20;;;3.40;;
83688;SDS011;74527;43.224;0.108;2024-03-02T09:22:02;8.82;;;2.88;;
83688;SDS011;74527;43.224;0.108;2024-03-02T09:24:30;4.68;;;2.13;;
83688;SDS011;74527;43.224;0.108;2024-03-02T09:26:56;6.72;;;2.45;;
83688;SDS011;74527;43.224;0.108;2024-03-02T09:29:22;6.75;;;2.40;;
83688;SDS011;74527;43.224;0.108;2024-03-02T09:31:48;10.27;;;3.28;;
83688;SDS011;74527;43.224;0.108;2024-03-02T09:34:16;5.30;;;2.65;;
83688;SDS011;74527;43.224;0.108;2024-03-02T09:36:42;11.80;;;2.20;;
83688;SDS011;74527;43.224;0.108;2024-03-02T09:39:08;5.30;;;2.25;;
83688;SDS011;74527;43.224;0.108;2024-03-02T09:41:37;10.15;;;3.17;;
83688;SDS011;74527;43.224;0.108;2024-03-02T09:44:03;6.95;;;3.30;;
83688;SDS011;74527;43.224;0.108;2024-03-02T09:46:30;4.35;;;2.97;;
83688;SDS011;74527;43.224;0.108;2024-03-02T09:48:56;5.03;;;2.70;;
83688;SDS011;74527;43.224;0.108;2024-03-02T09:51:22;5.13;;;2.58;;
83688;SDS011;74527;43.224;0.108;2024-03-02T09:53:49;18.33;;;6.63;;
83688;SDS011;74527;43.224;0.108;2024-03-02T09:56:15;11.07;;;4.55;;
83688;SDS011;74527;43.224;0.108;2024-03-02T09:58:41;4.50;;;2.65;;
83688;SDS011;74527;43.224;0.108;2024-03-02T10:01:08;10.02;;;4.05;;
83688;SDS011;74527;43.224;0.108;2024-03-02T10:03:38;5.90;;;2.40;;
83688;SDS011;74527;43.224;0.108;2024-03-02T10:08:45;7.20;;;2.67;;
83688;SDS011;74527;43.224;0.108;2024-03-02T10:11:35;7.22;;;2.70;;
83688;SDS011;74527;43.224;0.108;2024-03-02T10:14:11;19.80;;;8.32;;
83688;SDS011;74527;43.224;0.108;2024-03-02T10:19:19;3.42;;;2.22;;
83688;SDS011;74527;43.224;0.108;2024-03-02T10:21:49;4.95;;;2.70;;
83688;SDS011;74527;43.224;0.108;2024-03-02T10:24:18;7.22;;;2.85;;
83688;SDS011;74527;43.224;0.108;2024-03-02T10:26:44;11.55;;;5.75;;
83688;SDS011;74527;43.224;0.108;2024-03-02T10:29:10;16.00;;;8.13;;
83688;SDS011;74527;43.224;0.108;2024-03-02T10:31:40;6.60;;;3.92;;
83688;SDS011;74527;43.224;0.108;2024-03-02T10:34:07;4.30;;;2.40;;
83688;SDS011;74527;43.224;0.108;2024-03-02T10:36:34;5.57;;;2.47;;
83688;SDS011;74527;43.224;0.108;2024-03-02T10:39:03;4.93;;;2.00;;
83688;SDS011;74527;43.224;0.108;2024-03-02T10:41:37;2.65;;;2.15;;
83688;SDS011;74527;43.224;0.108;2024-03-02T10:44:07;7.50;;;2.05;;
83688;SDS011;74527;43.224;0.108;2024-03-02T10:46:34;2.72;;;1.75;;
83688;SDS011;74527;43.224;0.108;2024-03-02T10:49:00;5.97;;;3.30;;
83688;SDS011;74527;43.224;0.108;2024-03-02T10:51:27;3.17;;;2.40;;
83688;SDS011;74527;43.224;0.108;2024-03-02T10:53:56;10.23;;;4.60;;
83688;SDS011;74527;43.224;0.108;2024-03-02T10:56:32;3.17;;;2.15;;
83688;SDS011;74527;43.224;0.108;2024-03-02T10:59:02;6.93;;;2.97;;
83688;SDS011;74527;43.224;0.108;2024-03-02T11:01:29;8.23;;;4.70;;
83688;SDS011;74527;43.224;0.108;2024-03-02T11:03:55;8.75;;;4.25;;
83688;SDS011;74527;43.224;0.108;2024-03-02T11:06:22;4.47;;;2.72;;
83688;SDS011;74527;43.224;0.108;2024-03-02T11:08:48;5.05;;;3.13;;
83688;SDS011;74527;43.224;0.108;2024-03-02T11:11:15;23.85;;;8.07;;
83688;SDS011;74527;43.224;0.108;2024-03-02T11:13:47;4.30;;;3.55;;
83688;SDS011;74527;43.224;0.108;2024-03-02T11:16:48;9.02;;;4.10;;
83688;SDS011;74527;43.224;0.108;2024-03-02T11:19:08;10.20;;;3.33;;
83688;SDS011;74527;43.224;0.108;2024-03-02T11:21:35;7.05;;;4.55;;
83688;SDS011;74527;43.224;0.108;2024-03-02T11:26:47;6.82;;;4.18;;
83688;SDS011;74527;43.224;0.108;2024-03-02T11:31:58;21.60;;;14.15;;
83688;SDS011;74527;43.224;0.108;2024-03-02T11:34:29;10.25;;;5.80;;
83688;SDS011;74527;43.224;0.108;2024-03-02T11:36:55;9.68;;;5.07;;
83688;SDS011;74527;43.224;0.108;2024-03-02T11:39:21;9.45;;;4.68;;
83688;SDS011;74527;43.224;0.108;2024-03-02T11:41:47;10.35;;;6.50;;
83688;SDS011;74527;43.224;0.108;2024-03-02T11:44:14;7.45;;;4.20;;
83688;SDS011;74527;43.224;0.108;2024-03-02T11:46:41;25.08;;;14.68;;
83688;SDS011;74527;43.224;0.108;2024-03-02T11:49:07;21.60;;;10.15;;
83688;SDS011;74527;43.224;0.108;2024-03-02T11:51:34;26.70;;;12.67;;
83688;SDS011;74527;43.224;0.108;2024-03-02T11:54:01;46.33;;;14.38;;
83688;SDS011;74527;43.224;0.108;2024-03-02T11:56:28;30.83;;;14.20;;
83688;SDS011;74527;43.224;0.108;2024-03-02T11:58:56;14.63;;;8.13;;
83688;SDS011;74527;43.224;0.108;2024-03-02T12:01:23;26.23;;;11.25;;
83688;SDS011;74527;43.224;0.108;2024-03-02T12:03:49;12.98;;;7.07;;
83688;SDS011;74527;43.224;0.108;2024-03-02T12:06:15;10.07;;;5.72;;
83688;SDS011;74527;43.224;0.108;2024-03-02T12:08:42;9.55;;;6.05;;
83688;SDS011;74527;43.224;0.108;2024-03-02T12:11:08;21.55;;;7.32;;
83688;SDS011;74527;43.224;0.108;2024-03-02T12:13:38;17.95;;;6.80;;
83688;SDS011;74527;43.224;0.108;2024-03-02T12:16:04;12.63;;;7.35;;
83688;SDS011;74527;43.224;0.108;2024-03-02T12:18:31;15.35;;;8.15;;
83688;SDS011;74527;43.224;0.108;2024-03-02T12:20:57;19.27;;;8.25;;
83688;SDS011;74527;43.224;0.108;2024-03-02T12:23:23;18.58;;;8.30;;
83688;SDS011;74527;43.224;0.108;2024-03-02T12:25:49;18.67;;;7.53;;
83688;SDS011;74527;43.224;0.108;2024-03-02T12:28:16;15.85;;;7.50;;
83688;SDS011;74527;43.224;0.108;2024-03-02T12:30:42;15.65;;;9.40;;
83688;SDS011;74527;43.224;0.108;2024-03-02T12:33:10;14.40;;;7.28;;
83688;SDS011;74527;43.224;0.108;2024-03-02T12:35:36;60.65;;;29.38;;
83688;SDS011;74527;43.224;0.108;2024-03-02T12:38:02;56.35;;;28.10;;
83688;SDS011;74527;43.224;0.108;2024-03-02T12:40:30;21.48;;;10.98;;
83688;SDS011;74527;43.224;0.108;2024-03-02T12:42:57;34.53;;;16.15;;
83688;SDS011;74527;43.224;0.108;2024-03-02T12:45:23;25.63;;;14.18;;
83688;SDS011;74527;43.224;0.108;2024-03-02T12:47:50;18.70;;;9.63;;
83688;SDS011;74527;43.224;0.108;2024-03-02T12:50:17;10.57;;;6.97;;
83688;SDS011;74527;43.224;0.108;2024-03-02T12:52:43;14.00;;;7.03;;
83688;SDS011;74527;43.224;0.108;2024-03-02T12:55:09;12.25;;;6.93;;
83688;SDS011;74527;43.224;0.108;2024-03-02T12:57:35;18.25;;;10.27;;
83688;SDS011;74527;43.224;0.108;2024-03-02T13:00:02;14.98;;;8.43;;
83688;SDS011;74527;43.224;0.108;2024-03-02T13:02:34;13.18;;;7.70;;
83688;SDS011;74527;43.224;0.108;2024-03-02T13:05:01;23.23;;;9.77;;
83688;SDS011;74527;43.224;0.108;2024-03-02T13:07:27;12.30;;;5.68;;
83688;SDS011;74527;43.224;0.108;2024-03-02T13:09:55;9.77;;;5.50;;
83688;SDS011;74527;43.224;0.108;2024-03-02T13:12:22;13.00;;;6.70;;
83688;SDS011;74527;43.224;0.108;2024-03-02T13:14:49;17.85;;;9.32;;
83688;SDS011;74527;43.224;0.108;2024-03-02T13:17:17;15.20;;;7.00;;
83688;SDS011;74527;43.224;0.108;2024-03-02T13:19:43;12.73;;;6.03;;
83688;SDS011;74527;43.224;0.108;2024-03-02T13:22:09;10.70;;;6.07;;
83688;SDS011;74527;43.224;0.108;2024-03-02T13:24:35;8.60;;;5.15;;
83688;SDS011;74527;43.224;0.108;2024-03-02T13:27:01;11.40;;;6.65;;
83688;SDS011;74527;43.224;0.108;2024-03-02T13:29:29;12.55;;;6.82;;
83688;SDS011;74527;43.224;0.108;2024-03-02T13:31:55;8.50;;;5.47;;
83688;SDS011;74527;43.224;0.108;2024-03-02T13:34:22;16.30;;;6.13;;
83688;SDS011;74527;43.224;0.108;2024-03-02T13:36:48;13.90;;;6.88;;
83688;SDS011;74527;43.224;0.108;2024-03-02T13:39:15;8.35;;;5.10;;
83688;SDS011;74527;43.224;0.108;2024-03-02T13:41:41;4.88;;;3.45;;
83688;SDS011;74527;43.224;0.108;2024-03-02T13:44:09;4.53;;;3.00;;
83688;SDS011;74527;43.224;0.108;2024-03-02T13:46:36;8.90;;;3.45;;
83688;SDS011;74527;43.224;0.108;2024-03-02T13:49:02;9.88;;;3.58;;
83688;SDS011;74527;43.224;0.108;2024-03-02T13:51:29;10.18;;;2.95;;
83688;SDS011;74527;43.224;0.108;2024-03-02T13:53:55;9.07;;;3.10;;
83688;SDS011;74527;43.224;0.108;2024-03-02T13:56:21;8.93;;;4.30;;
83688;SDS011;74527;43.224;0.108;2024-03-02T13:58:50;7.40;;;3.45;;
83688;SDS011;74527;43.224;0.108;2024-03-02T14:01:16;7.20;;;2.88;;
83688;SDS011;74527;43.224;0.108;2024-03-02T14:03:42;14.25;;;3.97;;
83688;SDS011;74527;43.224;0.108;2024-03-02T14:06:08;7.15;;;3.55;;
83688;SDS011;74527;43.224;0.108;2024-03-02T14:08:34;8.02;;;3.22;;
83688;SDS011;74527;43.224;0.108;2024-03-02T14:11:01;4.60;;;3.45;;
83688;SDS011;74527;43.224;0.108;2024-03-02T14:13:27;6.22;;;2.97;;
83688;SDS011;74527;43.224;0.108;2024-03-02T14:15:54;7.97;;;2.88;;
83688;SDS011;74527;43.224;0.108;2024-03-02T14:18:20;11.05;;;3.50;;
83688;SDS011;74527;43.224;0.108;2024-03-02T14:20:46;6.50;;;3.10;;
83688;SDS011;74527;43.224;0.108;2024-03-02T14:23:17;9.10;;;4.72;;
83688;SDS011;74527;43.224;0.108;2024-03-02T14:25:44;12.15;;;4.30;;
83688;SDS011;74527;43.224;0.108;2024-03-02T14:28:10;8.57;;;5.53;;
83688;SDS011;74527;43.224;0.108;2024-03-02T14:30:37;8.70;;;3.92;;
83688;SDS011;74527;43.224;0.108;2024-03-02T14:33:03;6.00;;;3.92;;
83688;SDS011;74527;43.224;0.108;2024-03-02T14:35:29;12.98;;;6.32;;
83688;SDS011;74527;43.224;0.108;2024-03-02T14:37:55;7.85;;;5.30;;
83688;SDS011;74527;43.224;0.108;2024-03-02T14:40:25;14.32;;;6.45;;
83688;SDS011;74527;43.224;0.108;2024-03-02T14:42:52;12.55;;;5.95;;
83688;SDS011;74527;43.224;0.108;2024-03-02T14:45:19;11.10;;;5.53;;
83688;SDS011;74527;43.224;0.108;2024-03-02T14:47:45;13.75;;;4.28;;
83688;SDS011;74527;43.224;0.108;2024-03-02T14:50:11;9.70;;;3.65;;
83688;SDS011;74527;43.224;0.108;2024-03-02T14:52:37;6.00;;;3.90;;
83688;SDS011;74527;43.224;0.108;2024-03-02T14:55:03;6.53;;;3.92;;
83688;SDS011;74527;43.224;0.108;2024-03-02T14:57:32;6.40;;;4.50;;